Time;durP1;ratioP1;P1;durP2;ratioP2;P2;SDS_P1;SDS_P2;PMS_P1;PMS_P2;Temp;Humidity;BMP_temperature;BMP_pressure;BME280_temperature;BME280_humidity;BME280_pressure;Samples;Min_cycle;Max_cycle;Signal;HPM_P1;HPM_P2
2022/01/02 00:00:40;;;;;;;0.57;0.57;;;8.40;99.90;;;;;;5065817;28;21037;-85
2022/01/02 00:03:07;;;;;;;0.80;0.67;;;8.20;99.90;;;;;;5064382;28;20211;-85
2022/01/02 00:05:36;;;;;;;0.60;0.33;;;8.50;99.90;;;;;;5063517;28;20650;-85
2022/01/02 00:08:09;;;;;;;0.80;0.50;;;8.50;99.90;;;;;;5063476;28;20197;-85
2022/01/02 00:10:56;;;;;;;0.70;0.70;;;8.60;99.90;;;;;;5063593;28;20202;-85
2022/01/02 00:13:27;;;;;;;0.60;0.60;;;8.80;99.90;;;;;;5063723;28;20648;-85
2022/01/02 00:15:55;;;;;;;1.60;0.53;;;9.00;99.90;;;;;;5064222;28;20174;-84
2022/01/02 00:18:25;;;;;;;0.50;0.50;;;9.20;99.90;;;;;;5061722;28;20187;-84
2022/01/02 00:20:52;;;;;;;0.73;0.73;;;9.30;99.90;;;;;;5063782;28;20565;-85
2022/01/02 00:23:23;;;;;;;0.20;0.20;;;9.40;99.90;;;;;;5063019;28;20268;-84
2022/01/02 00:25:53;;;;;;;0.57;0.57;;;9.20;99.90;;;;;;5067445;28;20178;-85
2022/01/02 00:28:19;;;;;;;1.80;0.70;;;9.30;99.90;;;;;;5064647;28;20183;-84
2022/01/02 00:30:46;;;;;;;0.40;0.40;;;9.10;99.90;;;;;;5067741;28;20552;-84
2022/01/02 00:33:12;;;;;;;2.00;1.30;;;8.90;99.90;;;;;;5066551;28;20201;-85
2022/01/02 00:35:38;;;;;;;0.97;0.87;;;8.90;99.90;;;;;;5065566;28;20197;-84
2022/01/02 00:38:15;;;;;;;0.87;0.60;;;8.80;99.90;;;;;;5062068;28;20196;-86
2022/01/02 00:40:44;;;;;;;0.93;0.47;;;8.80;99.90;;;;;;5066726;28;20543;-85
2022/01/02 00:43:13;;;;;;;0.73;0.73;;;8.70;99.90;;;;;;5065771;28;20245;-84
2022/01/02 00:45:46;;;;;;;1.30;0.70;;;8.60;99.90;;;;;;5066168;28;20267;-84
2022/01/02 00:48:19;;;;;;;3.20;1.20;;;8.80;99.90;;;;;;5067792;28;20268;-85
2022/01/02 00:50:50;;;;;;;1.07;0.97;;;9.00;99.90;;;;;;5066685;28;20227;-84
2022/01/02 00:53:18;;;;;;;1.07;0.90;;;9.20;99.90;;;;;;5063984;28;20195;-84
2022/01/02 00:55:46;;;;;;;0.83;0.47;;;9.30;99.90;;;;;;5063689;28;20169;-85
2022/01/02 00:58:14;;;;;;;0.70;0.70;;;9.30;99.90;;;;;;5065816;28;20187;-85
2022/01/02 01:00:47;;;;;;;1.07;1.00;;;9.50;99.90;;;;;;5066187;28;20552;-84
2022/01/02 01:03:19;;;;;;;0.73;0.60;;;9.30;99.90;;;;;;5063171;28;20684;-84
2022/01/02 01:05:45;;;;;;;1.13;0.87;;;9.20;99.90;;;;;;5066785;28;20175;-84
2022/01/02 01:08:11;;;;;;;0.53;0.53;;;9.00;99.90;;;;;;5067552;28;20183;-86
2022/01/02 01:10:39;;;;;;;3.00;0.97;;;9.10;99.90;;;;;;5065909;28;20214;-85
2022/01/02 01:13:06;;;;;;;0.77;0.77;;;9.00;99.90;;;;;;5063971;28;20216;-85
2022/01/02 01:15:34;;;;;;;0.30;0.30;;;9.10;99.90;;;;;;5064232;28;20212;-84
2022/01/02 01:18:01;;;;;;;0.70;0.67;;;9.30;99.90;;;;;;5066107;28;20197;-85
2022/01/02 01:20:30;;;;;;;0.57;0.30;;;9.40;99.90;;;;;;5063708;28;20182;-85
2022/01/02 01:22:56;;;;;;;1.30;1.20;;;9.50;99.90;;;;;;5062297;28;20214;-85
2022/01/02 01:25:23;;;;;;;0.87;0.87;;;9.60;99.90;;;;;;5065279;28;20561;-84
2022/01/02 01:27:50;;;;;;;2.40;1.27;;;9.60;99.90;;;;;;5058731;28;20178;-84
2022/01/02 01:30:17;;;;;;;0.53;0.53;;;9.70;99.90;;;;;;5065743;28;20298;-85
2022/01/02 01:32:44;;;;;;;1.83;0.57;;;9.80;99.90;;;;;;5066208;28;20216;-84
2022/01/02 01:35:11;;;;;;;1.47;0.67;;;9.80;99.90;;;;;;5065312;28;20195;-85
2022/01/02 01:37:37;;;;;;;0.53;0.40;;;9.70;99.90;;;;;;5061785;28;20961;-85
2022/01/02 01:40:05;;;;;;;1.10;0.80;;;9.50;99.90;;;;;;5064978;28;20187;-85
2022/01/02 01:42:37;;;;;;;3.10;0.70;;;9.60;99.90;;;;;;5065687;28;20296;-83
2022/01/02 01:48:04;;;;;;;0.77;0.77;;;9.50;99.90;;;;;;5056555;28;20183;-85
2022/01/02 01:50:39;;;;;;;1.73;0.97;;;9.10;99.90;;;;;;5065642;28;20211;-85
2022/01/02 01:53:05;;;;;;;2.43;0.33;;;9.00;99.90;;;;;;5064899;28;20211;-84
2022/01/02 01:55:33;;;;;;;0.53;0.53;;;9.10;99.90;;;;;;5064885;28;20192;-85
2022/01/02 01:57:59;;;;;;;1.30;1.03;;;9.00;99.90;;;;;;5061003;28;20191;-85
2022/01/02 02:00:25;;;;;;;0.43;0.43;;;9.00;99.90;;;;;;5065394;28;20175;-84
2022/01/02 02:02:51;;;;;;;0.77;0.77;;;9.20;99.90;;;;;;5066666;28;20259;-85
2022/01/02 02:05:16;;;;;;;0.90;0.63;;;9.30;99.90;;;;;;5065402;28;20172;-84
2022/01/02 02:07:44;;;;;;;0.70;0.60;;;9.50;99.90;;;;;;5064731;28;20180;-84
2022/01/02 02:10:15;;;;;;;2.03;1.60;;;9.50;99.90;;;;;;5062000;28;20182;-85
2022/01/02 02:12:44;;;;;;;0.70;0.70;;;9.50;99.90;;;;;;5066815;28;20201;-85
2022/01/02 02:15:11;;;;;;;1.27;1.00;;;9.60;99.90;;;;;;5063438;28;20182;-85
2022/01/02 02:17:37;;;;;;;2.10;1.00;;;9.60;99.90;;;;;;5081522;28;20209;-84
2022/01/02 02:20:12;;;;;;;1.03;0.77;;;9.70;99.90;;;;;;5058269;28;20178;-83
2022/01/02 02:22:43;;;;;;;0.27;0.27;;;9.50;99.90;;;;;;5062604;28;20209;-84
2022/01/02 02:25:10;;;;;;;0.50;0.30;;;9.60;99.90;;;;;;5064167;28;20208;-84
2022/01/02 02:27:36;;;;;;;0.20;0.10;;;9.60;99.90;;;;;;5060133;28;20177;-85
2022/01/02 02:30:03;;;;;;;0.40;0.40;;;9.60;99.90;;;;;;5066523;28;20182;-84
2022/01/02 02:32:29;;;;;;;0.50;0.50;;;9.40;99.90;;;;;;5065222;28;20215;-85
2022/01/02 02:34:54;;;;;;;0.40;0.40;;;9.40;99.90;;;;;;5064534;28;20195;-84
2022/01/02 02:37:20;;;;;;;0.67;0.67;;;9.20;99.90;;;;;;5064371;28;20194;-85
2022/01/02 02:39:45;;;;;;;1.07;0.50;;;9.00;99.90;;;;;;5065443;28;20184;-85
2022/01/02 02:42:23;;;;;;;0.60;0.60;;;9.00;99.90;;;;;;5064882;28;20188;-84
2022/01/02 02:44:57;;;;;;;0.47;0.47;;;9.10;99.90;;;;;;5061896;28;20218;-84
2022/01/02 02:50:07;;;;;;;0.93;0.93;;;9.40;99.90;;;;;;5065482;28;20659;-83
2022/01/02 02:52:42;;;;;;;1.17;0.70;;;9.50;99.90;;;;;;5062960;28;20257;-84
2022/01/02 02:55:08;;;;;;;1.37;0.70;;;9.60;99.90;;;;;;5064805;28;20324;-84
2022/01/02 02:57:35;;;;;;;0.90;0.50;;;9.60;99.90;;;;;;5064109;28;20285;-85
2022/01/02 03:00:00;;;;;;;0.20;0.20;;;9.70;99.90;;;;;;5064163;28;20211;-84
2022/01/02 03:02:26;;;;;;;1.23;0.60;;;9.60;99.90;;;;;;5064181;28;20203;-84
2022/01/02 03:04:51;;;;;;;0.53;0.53;;;9.40;99.90;;;;;;5062400;28;21323;-84
2022/01/02 03:07:17;;;;;;;1.77;1.23;;;9.20;99.90;;;;;;5065469;28;20262;-84
2022/01/02 03:09:48;;;;;;;0.43;0.40;;;9.00;99.90;;;;;;5062873;28;20320;-84
2022/01/02 03:12:14;;;;;;;0.73;0.73;;;9.10;99.90;;;;;;5064655;28;20279;-85
2022/01/02 03:14:39;;;;;;;0.80;0.80;;;9.10;99.90;;;;;;5065890;28;20696;-85
2022/01/02 03:17:05;;;;;;;0.77;0.77;;;8.90;99.90;;;;;;5065252;28;20547;-84
2022/01/02 03:19:31;;;;;;;0.37;0.37;;;9.00;99.90;;;;;;5062003;28;20182;-84
2022/01/02 03:21:57;;;;;;;0.50;0.20;;;9.20;99.90;;;;;;5062113;28;20201;-84
2022/01/02 03:24:23;;;;;;;1.30;0.83;;;9.00;99.90;;;;;;5065625;28;20184;-84
2022/01/02 03:26:48;;;;;;;0.50;0.50;;;9.00;99.90;;;;;;5064916;28;20200;-85
2022/01/02 03:29:14;;;;;;;0.20;0.20;;;9.10;99.90;;;;;;5058215;28;20672;-84
2022/01/02 03:31:39;;;;;;;1.07;0.60;;;9.20;99.90;;;;;;5063735;28;20203;-84
2022/01/02 03:34:05;;;;;;;0.33;0.33;;;9.20;99.90;;;;;;5064747;28;20212;-84
2022/01/02 03:36:31;;;;;;;0.53;0.20;;;9.20;99.90;;;;;;5061073;28;20242;-85
2022/01/02 03:38:56;;;;;;;0.73;0.73;;;9.30;99.90;;;;;;5065456;28;20574;-84
2022/01/02 03:41:22;;;;;;;0.40;0.40;;;9.30;99.90;;;;;;5065635;28;20652;-84
2022/01/02 03:43:47;;;;;;;2.43;0.60;;;9.40;99.90;;;;;;5068142;28;20627;-84
2022/01/02 03:46:13;;;;;;;0.90;0.53;;;9.50;99.90;;;;;;5059472;28;20183;-84
2022/01/02 03:48:39;;;;;;;2.10;1.90;;;9.50;99.90;;;;;;5068042;28;20239;-84
2022/01/02 03:51:05;;;;;;;0.63;0.57;;;9.60;99.90;;;;;;5065378;28;20219;-85
2022/01/02 03:53:34;;;;;;;1.87;0.60;;;9.50;99.90;;;;;;5063578;28;20210;-84
2022/01/02 03:55:59;;;;;;;1.57;0.50;;;9.40;99.90;;;;;;5059171;28;20530;-85
2022/01/02 03:58:25;;;;;;;0.30;0.30;;;9.40;99.90;;;;;;5064069;28;20206;-84
2022/01/02 04:00:50;;;;;;;0.57;0.50;;;9.50;99.90;;;;;;5064967;28;20195;-84
2022/01/02 04:03:16;;;;;;;0.30;0.30;;;9.50;99.90;;;;;;5064039;28;20234;-84
2022/01/02 04:05:45;;;;;;;0.47;0.40;;;9.60;99.90;;;;;;5068990;28;20186;-84
2022/01/02 04:08:13;;;;;;;0.40;0.40;;;9.60;99.90;;;;;;5069768;28;20195;-84
2022/01/02 04:10:39;;;;;;;0.70;0.70;;;9.30;99.90;;;;;;5065353;28;20219;-84
2022/01/02 04:13:08;;;;;;;0.57;0.57;;;9.40;99.90;;;;;;5068332;28;20284;-84
2022/01/02 04:15:33;;;;;;;0.80;0.70;;;9.50;99.90;;;;;;5068668;28;20215;-84
2022/01/02 04:17:59;;;;;;;0.63;0.60;;;9.30;99.90;;;;;;5064288;28;21005;-84
2022/01/02 04:20:25;;;;;;;0.50;0.30;;;9.20;99.90;;;;;;5071239;28;20184;-84
2022/01/02 04:22:54;;;;;;;0.40;0.30;;;9.00;99.90;;;;;;5068727;28;20305;-85
2022/01/02 04:25:19;;;;;;;0.40;0.40;;;9.10;99.90;;;;;;5066354;28;20210;-84
2022/01/02 04:27:45;;;;;;;0.37;0.37;;;9.20;99.90;;;;;;5068647;28;20645;-84
2022/01/02 04:30:13;;;;;;;1.37;0.60;;;9.10;99.90;;;;;;5068490;28;20213;-85
2022/01/02 04:32:39;;;;;;;0.43;0.43;;;9.20;99.90;;;;;;5069666;28;20200;-84
2022/01/02 04:35:05;;;;;;;2.63;0.40;;;9.30;99.90;;;;;;5069403;28;20230;-84
2022/01/02 04:37:32;;;;;;;1.10;0.73;;;9.40;99.90;;;;;;5069334;28;20556;-84
2022/01/02 04:39:58;;;;;;;0.60;0.60;;;9.40;99.90;;;;;;5065788;28;20966;-85
2022/01/02 04:42:23;;;;;;;0.47;0.47;;;9.50;99.90;;;;;;5069705;28;20198;-84
2022/01/02 04:44:49;;;;;;;0.30;0.30;;;9.50;99.90;;;;;;5069993;28;20185;-84
2022/01/02 04:47:14;;;;;;;0.17;0.17;;;9.40;99.90;;;;;;5066766;28;20188;-84
2022/01/02 04:49:40;;;;;;;0.60;0.40;;;9.40;99.90;;;;;;5068333;28;20652;-85
2022/01/02 04:52:05;;;;;;;0.50;0.50;;;9.40;99.90;;;;;;5067354;28;20203;-85
2022/01/02 04:54:31;;;;;;;0.53;0.53;;;9.40;99.90;;;;;;5070311;28;20220;-85
2022/01/02 04:56:56;;;;;;;0.30;0.30;;;9.40;99.90;;;;;;5067448;28;20169;-85
2022/01/02 04:59:22;;;;;;;1.20;0.73;;;9.40;99.90;;;;;;5067185;28;20711;-85
2022/01/02 05:01:47;;;;;;;0.40;0.40;;;9.40;99.90;;;;;;5069316;28;20195;-84
2022/01/02 05:04:13;;;;;;;0.30;0.30;;;9.50;99.90;;;;;;5069798;28;20207;-85
2022/01/02 05:06:42;;;;;;;0.73;0.70;;;9.50;99.90;;;;;;5064916;28;20210;-85
2022/01/02 05:09:07;;;;;;;0.60;0.40;;;9.50;99.90;;;;;;5069055;28;20183;-84
2022/01/02 05:11:33;;;;;;;0.70;0.63;;;9.50;99.90;;;;;;5077928;28;20222;-85
2022/01/02 05:13:59;;;;;;;0.40;0.40;;;9.20;99.90;;;;;;5077563;28;20203;-85
2022/01/02 05:16:24;;;;;;;1.50;0.70;;;9.20;99.90;;;;;;5075880;28;20203;-84
2022/01/02 05:18:50;;;;;;;1.03;0.33;;;9.30;99.90;;;;;;5081293;28;20182;-85
2022/01/02 05:21:15;;;;;;;1.10;1.00;;;9.20;99.90;;;;;;5083022;28;20213;-84
2022/01/02 05:23:42;;;;;;;0.63;0.63;;;9.20;99.90;;;;;;5079495;28;20218;-85
2022/01/02 05:26:07;;;;;;;0.40;0.40;;;9.10;99.90;;;;;;5065756;28;20206;-85
2022/01/02 05:28:33;;;;;;;0.33;0.33;;;9.20;99.90;;;;;;5067907;28;20251;-84
2022/01/02 05:30:58;;;;;;;0.90;0.90;;;9.10;99.90;;;;;;5069455;28;20758;-85
2022/01/02 05:33:24;;;;;;;0.30;0.30;;;9.20;99.90;;;;;;5068024;28;20295;-85
2022/01/02 05:35:49;;;;;;;0.50;0.50;;;9.20;99.90;;;;;;5070026;28;20181;-84
2022/01/02 05:38:16;;;;;;;2.07;1.70;;;9.00;99.90;;;;;;5068111;28;20296;-84
2022/01/02 05:40:41;;;;;;;0.93;0.57;;;8.90;99.90;;;;;;5067538;28;20184;-84
2022/01/02 05:43:07;;;;;;;0.53;0.40;;;9.10;99.90;;;;;;5064898;28;20203;-84
2022/01/02 05:45:33;;;;;;;0.43;0.43;;;9.20;99.90;;;;;;5066294;28;20184;-83
2022/01/02 05:47:58;;;;;;;0.50;0.50;;;9.30;99.90;;;;;;5065008;28;20203;-84
2022/01/02 05:50:24;;;;;;;0.60;0.43;;;9.30;99.90;;;;;;5062883;28;20197;-84
2022/01/02 05:52:50;;;;;;;1.20;0.77;;;9.40;99.90;;;;;;5067645;28;20699;-84
2022/01/02 05:55:16;;;;;;;0.37;0.37;;;9.20;99.90;;;;;;5066313;28;20596;-84
2022/01/02 05:57:41;;;;;;;0.43;0.43;;;9.30;99.90;;;;;;5067004;28;20202;-84
2022/01/02 06:00:08;;;;;;;0.70;0.70;;;9.30;99.90;;;;;;5063468;28;20206;-84
2022/01/02 06:02:34;;;;;;;0.50;0.50;;;9.10;99.90;;;;;;5064116;28;20243;-85
2022/01/02 06:05:02;;;;;;;1.63;0.70;;;9.10;99.90;;;;;;5068205;28;20226;-83
2022/01/02 06:07:30;;;;;;;0.53;0.53;;;8.90;99.90;;;;;;5070048;28;20244;-84
2022/01/02 06:09:56;;;;;;;2.23;0.93;;;8.40;99.90;;;;;;5070181;28;20659;-83
2022/01/02 06:12:23;;;;;;;0.53;0.50;;;8.30;99.90;;;;;;5068241;28;20222;-84
2022/01/02 06:14:49;;;;;;;0.77;0.60;;;8.30;99.90;;;;;;5068064;28;20179;-84
2022/01/02 06:17:14;;;;;;;0.40;0.40;;;8.50;99.90;;;;;;5069382;28;20185;-84
2022/01/02 06:19:40;;;;;;;1.10;0.50;;;8.70;99.90;;;;;;5067698;28;20179;-84
2022/01/02 06:22:05;;;;;;;1.07;0.80;;;8.80;99.90;;;;;;5068906;28;20214;-84
2022/01/02 06:24:31;;;;;;;1.23;0.63;;;8.90;99.90;;;;;;5068007;28;20177;-84
2022/01/02 06:26:56;;;;;;;2.83;0.70;;;9.00;99.90;;;;;;5066624;28;20186;-83
2022/01/02 06:29:22;;;;;;;0.33;0.33;;;9.00;99.90;;;;;;5070001;28;20269;-84
2022/01/02 06:31:47;;;;;;;0.87;0.60;;;9.20;99.90;;;;;;5067966;28;20612;-84
2022/01/02 06:34:13;;;;;;;0.50;0.50;;;9.20;99.90;;;;;;5067939;28;20208;-84
2022/01/02 06:36:39;;;;;;;1.40;0.50;;;9.20;99.90;;;;;;5071048;28;20236;-84
2022/01/02 06:39:04;;;;;;;0.27;0.20;;;9.00;99.90;;;;;;5063208;28;20553;-83
2022/01/02 06:41:30;;;;;;;0.20;0.20;;;8.90;99.90;;;;;;5067642;28;20188;-84
2022/01/02 06:43:55;;;;;;;0.27;0.27;;;8.70;99.90;;;;;;5067045;28;20714;-85
2022/01/02 06:46:21;;;;;;;1.43;1.33;;;8.70;99.90;;;;;;5064479;28;20187;-82
2022/01/02 06:48:47;;;;;;;0.90;0.90;;;8.70;99.90;;;;;;5065902;28;20194;-82
2022/01/02 06:51:12;;;;;;;0.40;0.40;;;8.70;99.90;;;;;;5066123;28;20704;-83
2022/01/02 06:53:38;;;;;;;0.63;0.60;;;8.60;99.90;;;;;;5065302;28;20225;-82
2022/01/02 06:56:04;;;;;;;1.50;0.30;;;8.40;99.90;;;;;;5061817;28;20174;-82
2022/01/02 06:58:30;;;;;;;0.97;0.87;;;8.20;99.90;;;;;;5068055;28;20680;-82
2022/01/02 07:00:56;;;;;;;0.20;0.20;;;8.30;99.90;;;;;;5064879;28;20277;-83
2022/01/02 07:03:22;;;;;;;0.80;0.80;;;8.50;99.90;;;;;;5064949;28;20242;-83
2022/01/02 07:05:48;;;;;;;0.17;0.17;;;8.60;99.90;;;;;;5062351;28;20237;-83
2022/01/02 07:08:14;;;;;;;0.13;0.13;;;8.80;99.90;;;;;;5062234;28;20185;-83
2022/01/02 07:10:39;;;;;;;0.57;0.57;;;8.50;99.90;;;;;;5064168;28;20299;-84
2022/01/02 07:13:05;;;;;;;0.43;0.43;;;8.30;99.90;;;;;;5060516;28;20683;-84
2022/01/02 07:15:31;;;;;;;0.77;0.47;;;8.50;99.90;;;;;;5060123;28;20626;-84
2022/01/02 07:17:57;;;;;;;0.27;0.27;;;8.40;99.90;;;;;;5063042;28;20210;-84
2022/01/02 07:20:22;;;;;;;0.50;0.50;;;8.30;99.90;;;;;;5065263;28;20642;-84
2022/01/02 07:22:48;;;;;;;0.30;0.30;;;8.40;99.90;;;;;;5059076;28;20225;-84
2022/01/02 07:25:14;;;;;;;0.40;0.40;;;8.60;99.90;;;;;;5059453;28;20270;-84
2022/01/02 07:27:39;;;;;;;0.50;0.40;;;8.70;99.90;;;;;;5061909;28;20206;-84
2022/01/02 07:30:07;;;;;;;0.30;0.30;;;8.70;99.90;;;;;;5060870;28;20256;-84
2022/01/02 07:32:32;;;;;;;0.53;0.27;;;8.80;99.90;;;;;;5067354;28;20216;-84
2022/01/02 07:34:58;;;;;;;0.30;0.30;;;8.80;99.90;;;;;;5064398;28;20590;-84
2022/01/02 07:37:23;;;;;;;0.60;0.60;;;8.90;99.90;;;;;;5068315;28;20246;-84
2022/01/02 07:39:49;;;;;;;0.63;0.30;;;9.00;99.90;;;;;;5069426;28;20192;-84
2022/01/02 07:42:14;;;;;;;0.90;0.43;;;9.00;99.90;;;;;;5067748;28;20237;-84
2022/01/02 07:44:42;;;;;;;0.20;0.20;;;9.00;99.90;;;;;;5068730;28;20191;-84
2022/01/02 07:47:08;;;;;;;4.13;2.13;;;8.90;99.90;;;;;;5069152;28;20677;-84
2022/01/02 07:49:34;;;;;;;0.27;0.27;;;9.00;99.90;;;;;;5066131;28;20226;-84
2022/01/02 07:51:59;;;;;;;0.53;0.43;;;9.10;99.90;;;;;;5066669;28;20214;-84
2022/01/02 07:54:25;;;;;;;2.40;0.63;;;9.10;99.90;;;;;;5067779;28;20188;-84
2022/01/02 07:56:51;;;;;;;1.20;0.63;;;9.00;99.90;;;;;;5067388;28;20274;-84
2022/01/02 07:59:17;;;;;;;0.97;0.77;;;9.10;99.90;;;;;;5067387;28;20378;-84
2022/01/02 08:01:42;;;;;;;0.20;0.20;;;9.10;99.90;;;;;;5066948;28;20271;-83
2022/01/02 08:04:08;;;;;;;4.40;0.87;;;9.20;99.90;;;;;;5063806;28;20271;-84
2022/01/02 08:06:33;;;;;;;0.50;0.50;;;9.30;99.90;;;;;;5062018;28;20193;-85
2022/01/02 08:09:00;;;;;;;0.53;0.40;;;9.10;99.90;;;;;;5069329;28;20189;-84
2022/01/02 08:11:25;;;;;;;0.60;0.47;;;8.90;99.90;;;;;;5069390;28;20257;-84
2022/01/02 08:13:51;;;;;;;0.53;0.53;;;9.10;99.90;;;;;;5062535;28;20216;-84
2022/01/02 08:16:16;;;;;;;0.93;0.73;;;9.20;99.90;;;;;;5062800;28;20191;-84
2022/01/02 08:18:42;;;;;;;0.43;0.43;;;9.30;99.90;;;;;;5064385;28;20616;-85
2022/01/02 08:21:08;;;;;;;1.00;0.70;;;9.30;99.90;;;;;;5063525;28;20207;-84
2022/01/02 08:23:34;;;;;;;1.10;0.50;;;9.40;99.90;;;;;;5063665;28;20206;-84
2022/01/02 08:26:00;;;;;;;0.83;0.83;;;9.50;99.90;;;;;;5064812;28;20188;-84
2022/01/02 08:28:26;;;;;;;0.80;0.80;;;9.50;99.90;;;;;;5067040;28;20580;-85
2022/01/02 08:30:52;;;;;;;1.83;1.03;;;9.60;99.90;;;;;;5061071;28;20256;-84
2022/01/02 08:33:17;;;;;;;0.30;0.30;;;9.50;99.90;;;;;;5066689;28;20208;-83
2022/01/02 08:35:44;;;;;;;0.20;0.20;;;9.50;99.90;;;;;;5065951;28;20548;-84
2022/01/02 08:38:12;;;;;;;0.20;0.20;;;9.50;99.90;;;;;;5070070;28;20183;-85
2022/01/02 08:40:39;;;;;;;1.48;1.08;;;9.60;99.90;;;;;;5053885;28;20690;-84
2022/01/02 08:43:05;;;;;;;0.90;0.50;;;9.60;99.90;;;;;;5065042;28;20472;-85
2022/01/02 08:45:31;;;;;;;0.57;0.57;;;9.50;99.90;;;;;;5065414;28;20189;-83
2022/01/02 08:47:58;;;;;;;1.07;0.53;;;9.00;99.90;;;;;;5061446;28;20300;-84
2022/01/02 08:50:23;;;;;;;0.20;0.20;;;9.00;99.90;;;;;;5062368;28;20173;-84
2022/01/02 08:52:49;;;;;;;0.40;0.40;;;9.10;99.90;;;;;;5067731;28;20230;-84
2022/01/02 08:55:15;;;;;;;0.70;0.63;;;9.20;99.90;;;;;;5067295;28;20181;-84
2022/01/02 08:57:41;;;;;;;1.20;0.53;;;9.40;99.90;;;;;;5064723;28;20185;-84
2022/01/02 09:00:07;;;;;;;0.60;0.60;;;9.40;99.90;;;;;;5069003;28;20284;-84
2022/01/02 09:02:33;;;;;;;0.30;0.30;;;9.50;99.90;;;;;;5066888;28;20207;-83
2022/01/02 09:04:58;;;;;;;0.93;0.40;;;9.60;99.90;;;;;;5063429;28;20544;-81
2022/01/02 09:07:24;;;;;;;0.30;0.27;;;9.80;99.90;;;;;;5067609;28;20648;-81
2022/01/02 09:09:49;;;;;;;0.20;0.20;;;9.80;99.90;;;;;;5066559;28;20199;-83
2022/01/02 09:12:15;;;;;;;0.53;0.53;;;9.60;99.90;;;;;;5065463;28;20203;-84
2022/01/02 09:14:42;;;;;;;2.67;0.60;;;9.60;99.90;;;;;;5061541;28;20180;-83
2022/01/02 09:17:07;;;;;;;0.40;0.40;;;9.20;99.90;;;;;;5065836;28;20275;-82
2022/01/02 09:19:33;;;;;;;0.50;0.50;;;8.70;99.90;;;;;;5063789;28;20628;-83
2022/01/02 09:21:58;;;;;;;0.50;0.50;;;8.70;99.90;;;;;;5064853;28;20268;-83
2022/01/02 09:24:24;;;;;;;0.53;0.53;;;8.60;99.90;;;;;;5056981;28;20687;-82
2022/01/02 09:26:50;;;;;;;0.20;0.20;;;8.80;99.90;;;;;;5067861;28;20196;-83
2022/01/02 09:29:15;;;;;;;0.23;0.20;;;9.10;99.90;;;;;;5066250;28;20214;-83
2022/01/02 09:31:41;;;;;;;0.47;0.47;;;9.10;99.90;;;;;;5066119;28;20209;-83
2022/01/02 09:34:07;;;;;;;0.47;0.40;;;9.10;99.90;;;;;;5060479;28;20229;-83
2022/01/02 09:36:33;;;;;;;0.30;0.30;;;9.30;99.90;;;;;;5067314;28;20180;-83
2022/01/02 09:38:58;;;;;;;0.40;0.40;;;9.30;99.90;;;;;;5064588;28;20686;-82
2022/01/02 09:41:24;;;;;;;0.83;0.77;;;9.40;99.90;;;;;;5062377;28;20603;-82
2022/01/02 09:43:50;;;;;;;0.93;0.93;;;9.60;99.90;;;;;;5065737;28;20207;-83
2022/01/02 09:46:24;;;;;;;0.50;0.50;;;9.70;99.90;;;;;;5065870;28;21179;-83
2022/01/02 09:48:51;;;;;;;0.97;0.90;;;9.80;99.90;;;;;;5064461;28;20179;-83
2022/01/02 09:51:19;;;;;;;2.50;0.60;;;9.80;99.90;;;;;;5067111;28;20563;-83
2022/01/02 09:53:46;;;;;;;0.43;0.43;;;9.90;99.90;;;;;;5069057;28;20200;-82
2022/01/02 09:56:12;;;;;;;0.40;0.40;;;10.00;99.90;;;;;;5067256;28;20182;-82
2022/01/02 09:58:40;;;;;;;0.23;0.20;;;10.00;99.90;;;;;;5063978;28;20201;-82
2022/01/02 10:01:06;;;;;;;1.23;1.13;;;9.90;99.90;;;;;;5066379;28;20185;-83
2022/01/02 10:03:41;;;;;;;0.67;0.67;;;9.80;99.90;;;;;;5059614;28;20208;-83
2022/01/02 10:06:07;;;;;;;1.00;0.70;;;9.90;99.90;;;;;;5066396;28;20195;-83
2022/01/02 10:08:34;;;;;;;1.30;0.43;;;9.90;99.90;;;;;;5060250;28;20186;-83
2022/01/02 10:11:24;;;;;;;0.73;0.70;;;9.90;99.90;;;;;;5064867;28;20211;-82
2022/01/02 10:13:54;;;;;;;0.50;0.50;;;9.90;99.90;;;;;;5066385;28;20219;-83
2022/01/02 10:16:20;;;;;;;1.90;0.43;;;9.90;99.90;;;;;;5082384;28;20601;-82
2022/01/02 10:18:48;;;;;;;0.43;0.40;;;9.80;99.90;;;;;;5064811;28;20215;-82
2022/01/02 10:21:27;;;;;;;0.70;0.63;;;9.80;99.90;;;;;;5066925;28;20233;-82
2022/01/02 10:24:29;;;;;;;1.53;0.90;;;10.00;99.90;;;;;;5064956;28;20219;-83
2022/01/02 10:27:11;;;;;;;1.47;1.47;;;9.90;99.90;;;;;;5026327;28;20185;-82
2022/01/02 10:29:41;;;;;;;0.70;0.60;;;9.90;99.90;;;;;;5063788;28;20191;-83
2022/01/02 10:32:28;;;;;;;0.97;0.97;;;10.00;99.90;;;;;;5067052;28;20725;-85
2022/01/02 10:35:15;;;;;;;0.73;0.57;;;10.00;99.90;;;;;;5065436;28;20180;-85
2022/01/02 10:37:42;;;;;;;2.60;0.70;;;10.20;99.90;;;;;;5060106;28;20180;-84
2022/01/02 10:40:38;;;;;;;0.53;0.53;;;10.10;99.90;;;;;;5064801;28;20726;-84
2022/01/02 10:43:07;;;;;;;0.40;0.40;;;10.20;99.90;;;;;;5065137;28;20200;-85
2022/01/02 10:45:38;;;;;;;0.90;0.80;;;10.20;99.90;;;;;;5064200;28;20184;-85
2022/01/02 10:48:06;;;;;;;0.73;0.73;;;10.00;99.90;;;;;;5064056;28;20225;-84
2022/01/02 10:50:32;;;;;;;0.50;0.47;;;9.80;99.90;;;;;;5062357;28;20194;-84
2022/01/02 10:53:14;;;;;;;1.33;0.70;;;9.70;99.90;;;;;;5060419;28;20200;-85
2022/01/02 10:55:43;;;;;;;0.40;0.40;;;9.80;99.90;;;;;;5059153;28;20183;-84
2022/01/02 10:58:09;;;;;;;0.30;0.30;;;9.90;99.90;;;;;;5062098;28;20287;-84
2022/01/02 11:00:34;;;;;;;1.67;1.57;;;10.10;99.90;;;;;;5063430;28;20271;-82
2022/01/02 11:03:00;;;;;;;1.17;1.00;;;10.20;99.90;;;;;;5063666;28;20208;-83
2022/01/02 11:05:28;;;;;;;0.67;0.67;;;10.20;99.90;;;;;;5064698;28;20181;-83
2022/01/02 11:07:58;;;;;;;0.50;0.50;;;9.90;99.90;;;;;;5059497;28;20192;-85
2022/01/02 11:10:25;;;;;;;0.70;0.70;;;9.50;99.90;;;;;;5064307;28;20725;-86
2022/01/02 11:12:54;;;;;;;2.07;0.90;;;9.30;99.90;;;;;;5060474;28;20265;-85
2022/01/02 11:15:21;;;;;;;2.83;1.37;;;9.30;99.90;;;;;;5063602;28;20175;-84
2022/01/02 11:17:48;;;;;;;0.70;0.70;;;9.10;99.90;;;;;;5061224;28;20234;-85
2022/01/02 11:20:16;;;;;;;0.97;0.70;;;8.90;99.90;;;;;;5063703;28;20190;-85
2022/01/02 11:23:01;;;;;;;1.70;1.60;;;9.00;99.90;;;;;;5063261;28;20228;-84
2022/01/02 11:25:43;;;;;;;0.60;0.53;;;9.20;99.90;;;;;;5062778;28;20187;-83
2022/01/02 11:28:33;;;;;;;1.50;0.93;;;9.10;99.90;;;;;;5064376;28;20188;-83
2022/01/02 11:30:58;;;;;;;0.60;0.60;;;9.00;99.90;;;;;;5056304;28;20219;-83
2022/01/02 11:33:48;;;;;;;2.33;0.77;;;9.10;99.90;;;;;;5058873;28;20211;-82
2022/01/02 11:36:30;;;;;;;2.10;2.00;;;9.40;99.90;;;;;;5063270;28;21871;-83
2022/01/02 11:39:07;;;;;;;0.33;0.33;;;9.70;99.90;;;;;;5081417;28;21089;-83
2022/01/02 11:41:43;;;;;;;0.70;0.70;;;9.90;99.90;;;;;;5066379;28;20206;-82
2022/01/02 11:44:19;;;;;;;0.87;0.80;;;9.80;99.90;;;;;;5065511;28;20238;-82
2022/01/02 11:46:58;;;;;;;0.50;0.50;;;10.00;99.90;;;;;;5062585;28;20175;-82
2022/01/02 11:49:40;;;;;;;0.77;0.50;;;10.10;99.90;;;;;;5061706;28;20198;-82
2022/01/02 11:52:31;;;;;;;1.60;0.60;;;10.20;99.90;;;;;;5064597;28;20584;-82
2022/01/02 11:54:57;;;;;;;1.43;0.80;;;10.20;99.90;;;;;;5064303;28;20229;-82
2022/01/02 11:57:23;;;;;;;0.97;0.83;;;10.20;99.90;;;;;;5062745;28;20626;-84
2022/01/02 11:59:48;;;;;;;2.83;0.83;;;10.30;99.90;;;;;;5055463;28;20207;-84
2022/01/02 12:02:26;;;;;;;1.13;1.00;;;10.30;99.90;;;;;;5056274;28;20278;-84
2022/01/02 12:10:15;;;;;;;0.63;0.50;;;10.70;99.90;;;;;;5066212;28;20758;-85
2022/01/02 12:12:59;;;;;;;2.23;0.80;;;10.80;99.90;;;;;;5065038;28;20220;-85
2022/01/02 12:15:44;;;;;;;1.40;0.90;;;10.90;99.90;;;;;;5064814;28;20189;-84
2022/01/02 12:18:17;;;;;;;0.23;0.23;;;10.90;99.90;;;;;;5066682;28;20180;-84
2022/01/02 12:23:29;;;;;;;0.80;0.80;;;11.00;99.90;;;;;;5068748;28;20211;-83
2022/01/02 12:26:03;;;;;;;2.10;1.00;;;11.20;99.90;;;;;;5061581;28;20245;-83
2022/01/02 12:28:37;;;;;;;1.23;0.90;;;11.20;99.90;;;;;;5064821;28;21292;-83
2022/01/02 12:31:03;;;;;;;0.90;0.90;;;11.40;99.90;;;;;;5068552;28;20208;-83
2022/01/02 12:33:33;;;;;;;0.67;0.67;;;11.50;99.90;;;;;;5068033;28;20216;-82
2022/01/02 12:36:12;;;;;;;1.43;1.33;;;11.80;99.90;;;;;;5061357;28;20216;-84
2022/01/02 12:38:55;;;;;;;1.90;0.83;;;12.00;99.90;;;;;;5067468;28;20183;-85
2022/01/02 12:41:24;;;;;;;0.47;0.47;;;12.00;99.90;;;;;;5067131;28;20661;-85
2022/01/02 12:44:05;;;;;;;0.50;0.50;;;11.10;99.90;;;;;;5068137;28;20206;-85
2022/01/02 12:46:39;;;;;;;0.97;0.80;;;10.70;99.90;;;;;;5067222;28;20636;-85
2022/01/02 12:49:14;;;;;;;0.80;0.80;;;10.70;99.90;;;;;;5066823;28;20234;-85
2022/01/02 12:51:42;;;;;;;1.30;0.70;;;10.90;99.90;;;;;;5066867;28;20206;-85
2022/01/02 12:54:14;;;;;;;0.37;0.37;;;11.20;99.90;;;;;;5066644;28;20216;-85
2022/01/02 12:56:43;;;;;;;1.83;0.63;;;11.60;99.90;;;;;;5069063;28;20217;-85
2022/01/02 12:59:25;;;;;;;0.80;0.67;;;11.70;99.90;;;;;;5066338;28;20205;-85
2022/01/02 13:01:58;;;;;;;0.93;0.93;;;11.80;99.90;;;;;;5065867;28;20191;-85
2022/01/02 13:04:40;;;;;;;0.40;0.40;;;11.90;99.90;;;;;;5067598;28;20204;-85
2022/01/02 13:07:22;;;;;;;0.40;0.40;;;12.00;99.90;;;;;;5065943;28;20188;-85
2022/01/02 13:09:49;;;;;;;1.80;1.07;;;12.10;99.90;;;;;;5064756;28;20715;-85
2022/01/02 13:12:26;;;;;;;1.20;1.07;;;12.10;99.90;;;;;;5062881;28;20203;-85
2022/01/02 13:15:08;;;;;;;1.37;0.93;;;12.10;99.90;;;;;;5062268;28;20184;-85